Tuesday, May 03, 2016
16:20 UTC
  |  Log In   |  Register Free
Airport Search:

Alpena County Regional Airport
(KAPN)

FAA data valid effective Mar 31 2016 - May 26 2016 (unless otherwise noted).

 
 
 
 
 
 
 
 
 
 
 
 
 
 
Current Aviation Weather for KAPN

Weather Summary


The most recent METAR observation for APN was updated at: 12:54 UTC
METAR for KAPN is not available. Closest METAR is for KPZQ
KAPN  (most recent observation was updatred at 31:55 UTC)
031554Z AUTO 18011KT 10SM CLR 18/01 A2982 RMK AO2 SLP099 T01780006

KPZQ  (22.5 nm SE)   (most recent observation was updated at 31:61 UTC)
031615Z AUTO 05005KT 10SM BKN075 15/02 A2980 RMK AO2 T01470015

TAF for KAPN is not available.
KAPN
031120Z 0312/0412 24007KT P6SM SCT250 FM031900 17009KT P6SM BKN180 FM032300 16007KT P6SM BKN070 FM040500 33005KT P6SM -SHRA OVC040

GlobalAir.com is loading additional information.
 Current Weather at APN
61.0 F° (16.1 C°)

Southwest winds at 5.8 mph
Pressure:
29.85 in
Humidity:
35%
Wind:
Southwest at 5.8 mph
Dew Point:
33.1 F° (0.6 C°)
Visibility:
10.00 mi
APN NOAA Radar




Find All Airport Services Find A Hotel Find A Rental Car Find A Golf Course Find A Restaurant $100 Hamburger



Airport Weather Forecast for KAPN

Translated METAR for KAPN (1554 UTC)
METAR:
KAPN 031554Z AUTO 18011KT 10SM CLR 18/01 A2982 RMK AO2 SLP099 T01780006
Conditions at:
KAPN (Alpena County Rgnl, MI) observed 1554 UTC 03 May 2016
Temperature:
18°C (64.4°F)
Dewpoint:
1°C (33.8°F) [RH = 31.9]
Pressure:
29.82 inches Hg (1009.8 mb)
pressure at sea level is 99 in Hg
Winds:
from the S (180 degrees) at 12.7 mph (11 knots: 5.7 m/s)
Visibility:
10 mile(s)
Ceiling:
at least 12,000 feet AGL
Clouds:
Clear below 12,000 feet AGL
Remarks:
site is un-manned
site is automated and HAS a precipitation sensor

Translated TAF for KAPN (Alpena County Rgnl, MI) (1120 UTC)
TAF text:
KAPN 031120Z 0312/0412 24007KT P6SM SCT250
Forecast period:
Tuesday May 03 2016 12:00 UTC - Wednesday May 04 2016 12:00 UTC
Forecast type:
FROM: standard forecast or significant change
Winds:
from the WSW (240 degrees) at 8.1 mph (7 knots: 3.6 m/s)
Visibility:
6 or more mile(s) (9.7+ km)
Ceiling:
at least 12,000 feet AGL
Clouds:
Scattered Clouds at 25,000 feet AGL
Weather:
no significant weather observed at this time
TAF text:
FM031900 17009KT P6SM BKN180
Forecast period:
Tuesday May 03 2016 19:00 UTC - Tuesday May 03 2016 23:00 UTC
Forecast type:
FROM: standard forecast or significant change
Winds:
from the S (170 degrees) at 10.4 mph (9 knots: 4.6 m/s)
Visibility:
6 or more mile(s) (9.7+ km)
Ceiling:
18,000 feet AGL
Clouds:
Broken Cloud Cover at 18,000 feet AGL
Weather:
no significant weather observed at this time
TAF text:
FM032300 16007KT P6SM BKN070
Forecast period:
Tuesday May 03 2016 23:00 UTC - Wednesday May 04 2016 05:00 UTC
Forecast type:
FROM: standard forecast or significant change
Winds:
from the SSE (160 degrees) at 8.1 mph (7 knots: 3.6 m/s)
Visibility:
6 or more mile(s) (9.7+ km)
Ceiling:
7,000 feet AGL
Clouds:
Broken Cloud Cover at 7,000 feet AGL
Weather:
no significant weather observed at this time
TAF text:
FM040500 33005KT P6SM -SHRA OVC040
Forecast period:
Wednesday May 04 2016 05:00 UTC - Wednesday May 04 2016 12:00 UTC
Forecast type:
FROM: standard forecast or significant change
Winds:
from the NNW (330 degrees) at 5.8 mph (5 knots: 2.6 m/s)
Visibility:
6 or more mile(s) (9.7+ km)
Ceiling:
4,000 feet AGL
Clouds:
Overcast Skies at 4,000 feet AGL
Weather:
Light Shower(s) Rain
FBO's on the Field
FBO Company Facility Photos Services Transportation Aviation Fuel Prices: Prices include tax
Catering Weather Repair Courtesy Rental Type 100LL JetA JetA+ MOGAS 8087
 
Aviation Express Inc.

Currently rated 5 by 1 person
FS:Shell
Last Updated: Apr-15
Login to update fuel prices
SS:
Contact Aviation Express Inc.More FBO Information
 
Aviation North

This FBO has not yet been rated
FS:Avfuel
Last Updated: Apr-26
Login to update fuel prices
SS:
Contact Aviation NorthMore FBO Information
 
Add another FBO Facility Photos Catering Weather Repair Courtesy Rental Type 100LL JetA JetA+ MOGAS 8087
Services Transportation Aviation Fuel Prices: Prices include tax


model-print
model-print
model-print
model-print